»·PEaware :: N6229P L70-KSBA

N6229P :: L70-KSBA

FLIGHT INFORMATION

Flight Status: Arrived
Operator: Privately registered:
United States
More flights under this callsign
Pilot: Mark M. (12592)
Aircraft: PIPER PA-24 COMMANCHE
(PA24)
More flights by this aircraft type
Origin: L70 Agua Dulce
United States
Destination: KSBA Santa Barbara Mun
United States
More flights between these airports :: More routes between these airports
Route: +FIM KWANG
File this flight plan on PilotEdge
Remarks:
Altitude:
(Current/Filed)
8,000ft
Speed:
(Current/Filed)
150kts
Departed: 08-Jul-17 09:19 AM
Arrived: 08-Jul-17 10:04 AM
Distance/Time
Traveled:
76nm/0:45
Distance/Time
To Go:
Arrived

Flight Plot

Page will automatically refresh every two minutes.


Map Options




Map Legend


Flown Route
Filed Route
Departure Airport
Arrival Airport
Navaid (VOR, NDB)
Fix

Horizontal Profiles

Position Reports

Time Latitude Longitude Heading Altitude Ground
Speed
08-Jul-17 09:13 34.499301 -118.319537 16 2605ft 0kts
08-Jul-17 09:14 34.499303 -118.319536 16 2605ft 0kts
08-Jul-17 09:15 34.499305 -118.319535 16 2605ft 0kts
08-Jul-17 09:16 34.499307 -118.319535 16 2605ft 0kts
08-Jul-17 09:17 34.499308 -118.319534 16 2605ft 0kts
08-Jul-17 09:18 34.499310 -118.319533 16 2605ft 0kts
08-Jul-17 09:19 34.499314 -118.319532 16 2605ft 0kts
08-Jul-17 09:20 34.499319 -118.319530 16 2605ft 0kts
08-Jul-17 09:21 34.499323 -118.319529 16 2605ft 0kts
08-Jul-17 09:22 34.506305 -118.308858 59 2797ft 95kts
08-Jul-17 09:23 34.521383 -118.311520 267 3717ft 112kts
08-Jul-17 09:24 34.515998 -118.351414 261 4323ft 123kts
08-Jul-17 09:25 34.511814 -118.396904 265 4570ft 150kts
08-Jul-17 09:26 34.503419 -118.444747 252 5091ft 141kts
08-Jul-17 09:27 34.489629 -118.488418 243 5665ft 136kts
08-Jul-17 09:28 34.476187 -118.533600 246 5969ft 148kts
08-Jul-17 09:29 34.456506 -118.580315 243 6052ft 167kts
08-Jul-17 09:30 34.438138 -118.633399 249 6006ft 171kts
08-Jul-17 09:31 34.421647 -118.687343 248 6004ft 173kts
08-Jul-17 09:32 34.403757 -118.740771 247 5981ft 166kts
08-Jul-17 09:33 34.389066 -118.784129 248 5976ft 169kts
08-Jul-17 09:34 34.371330 -118.837513 248 5956ft 169kts
08-Jul-17 09:35 34.354138 -118.889896 252 5933ft 165kts
08-Jul-17 09:36 34.352369 -118.944933 273 5920ft 163kts
08-Jul-17 09:37 34.347354 -118.999197 258 5912ft 164kts
08-Jul-17 09:38 34.344044 -119.052621 267 6065ft 161kts
08-Jul-17 09:39 34.339801 -119.107908 263 6074ft 171kts
08-Jul-17 09:40 34.335310 -119.164749 264 6064ft 167kts
08-Jul-17 09:41 34.331115 -119.220189 264 6067ft 164kts
08-Jul-17 09:42 34.328017 -119.275580 265 6074ft 167kts
08-Jul-17 09:43 34.324879 -119.331416 266 6071ft 164kts
08-Jul-17 09:44 34.320432 -119.386543 263 6077ft 167kts
08-Jul-17 09:45 34.315587 -119.442449 264 6072ft 164kts
08-Jul-17 09:46 34.310715 -119.497216 264 6070ft 163kts
08-Jul-17 09:47 34.308019 -119.552101 257 6079ft 163kts
08-Jul-17 09:48 34.301816 -119.608249 267 5703ft 176kts
08-Jul-17 09:49 34.298131 -119.666386 262 5153ft 173kts
08-Jul-17 09:50 34.292096 -119.723605 264 4607ft 170kts
08-Jul-17 09:51 34.289224 -119.780158 264 4135ft 165kts
08-Jul-17 09:52 34.283423 -119.835245 267 4040ft 161kts
08-Jul-17 09:53 34.280613 -119.890599 264 4014ft 164kts
08-Jul-17 09:54 34.274873 -119.945707 265 4011ft 165kts
08-Jul-17 09:55 34.270116 -120.000977 265 4021ft 165kts
08-Jul-17 09:56 34.265839 -120.056697 262 3994ft 167kts
08-Jul-17 09:57 34.297462 -120.084564 352 3555ft 160kts
08-Jul-17 09:58 34.340882 -120.089145 3 3007ft 156kts
08-Jul-17 09:59 34.375633 -120.087962 355 2827ft 140kts
08-Jul-17 10:00 34.412447 -120.085613 30 2822ft 129kts
08-Jul-17 10:01 34.423331 -120.043213 91 2201ft 139kts
08-Jul-17 10:02 34.424373 -119.997813 88 1813ft 131kts
08-Jul-17 10:03 34.425472 -119.956561 85 1670ft 107kts
08-Jul-17 10:04 34.426049 -119.921918 89 1119ft 97kts
08-Jul-17 10:05 34.426760 -119.889325 91 619ft 93kts
08-Jul-17 10:06 34.427383 -119.860136 90 126ft 80kts
08-Jul-17 10:07 34.427732 -119.843362 88 13ft 17kts
08-Jul-17 10:08 34.428578 -119.841969 345 13ft 0kts
08-Jul-17 10:09 34.428806 -119.842021 347 13ft 7kts
08-Jul-17 10:10 34.430214 -119.842650 166 13ft 0kts
08-Jul-17 10:11 34.430214 -119.842650 166 13ft 0kts
08-Jul-17 10:12 34.430214 -119.842650 166 13ft 0kts

Navigation Log

Ident Type
Flight plan parsing failed, navigation log unavailable